sensor_id;sensor_type;location;lat;lon;timestamp;temperature;humidity
44435;DHT22;30138;20.964;105.830;2022-09-03T00:01:26;32.50;99.90
44435;DHT22;30138;20.964;105.830;2022-09-03T00:06:44;32.50;99.90
44435;DHT22;30138;20.964;105.830;2022-09-03T00:12:01;32.50;99.90
44435;DHT22;30138;20.964;105.830;2022-09-03T00:17:17;32.50;99.90
44435;DHT22;30138;20.964;105.830;2022-09-03T00:22:29;32.50;99.90
44435;DHT22;30138;20.964;105.830;2022-09-03T00:27:39;32.50;99.90
44435;DHT22;30138;20.964;105.830;2022-09-03T00:32:54;32.50;99.90
44435;DHT22;30138;20.964;105.830;2022-09-03T00:38:02;32.50;99.90
44435;DHT22;30138;20.964;105.830;2022-09-03T00:43:14;32.50;99.90
44435;DHT22;30138;20.964;105.830;2022-09-03T00:48:30;32.50;99.90
44435;DHT22;30138;20.964;105.830;2022-09-03T00:53:47;32.50;99.90
44435;DHT22;30138;20.964;105.830;2022-09-03T00:59:07;32.50;99.90
44435;DHT22;30138;20.964;105.830;2022-09-03T01:04:32;32.60;99.90
44435;DHT22;30138;20.964;105.830;2022-09-03T01:09:50;32.60;99.90
44435;DHT22;30138;20.964;105.830;2022-09-03T01:15:10;32.60;99.90
44435;DHT22;30138;20.964;105.830;2022-09-03T01:20:31;32.60;99.90
44435;DHT22;30138;20.964;105.830;2022-09-03T01:25:51;32.60;99.90
44435;DHT22;30138;20.964;105.830;2022-09-03T01:31:06;32.60;99.90
44435;DHT22;30138;20.964;105.830;2022-09-03T01:36:24;32.60;99.90
44435;DHT22;30138;20.964;105.830;2022-09-03T01:41:46;32.70;99.90
44435;DHT22;30138;20.964;105.830;2022-09-03T01:47:21;32.70;99.90
44435;DHT22;30138;20.964;105.830;2022-09-03T01:52:42;32.80;99.90
44435;DHT22;30138;20.964;105.830;2022-09-03T01:57:59;32.80;99.90
44435;DHT22;30138;20.964;105.830;2022-09-03T02:03:12;32.80;99.90
44435;DHT22;30138;20.964;105.830;2022-09-03T02:08:19;32.80;99.90
44435;DHT22;30138;20.964;105.830;2022-09-03T02:13:28;32.80;99.90
44435;DHT22;30138;20.964;105.830;2022-09-03T02:18:41;32.90;99.90
44435;DHT22;30138;20.964;105.830;2022-09-03T02:23:51;32.90;99.90
44435;DHT22;30138;20.964;105.830;2022-09-03T02:28:58;33.00;99.90
44435;DHT22;30138;20.964;105.830;2022-09-03T02:34:07;33.00;99.90
44435;DHT22;30138;20.964;105.830;2022-09-03T02:39:15;33.00;99.90
44435;DHT22;30138;20.964;105.830;2022-09-03T02:44:25;33.00;99.90
44435;DHT22;30138;20.964;105.830;2022-09-03T02:49:35;33.00;99.90
44435;DHT22;30138;20.964;105.830;2022-09-03T02:54:42;33.00;99.90
44435;DHT22;30138;20.964;105.830;2022-09-03T02:59:49;33.00;99.90
44435;DHT22;30138;20.964;105.830;2022-09-03T03:04:57;33.00;99.90
44435;DHT22;30138;20.964;105.830;2022-09-03T03:10:04;33.00;99.90
44435;DHT22;30138;20.964;105.830;2022-09-03T03:15:12;33.10;99.90
44435;DHT22;30138;20.964;105.830;2022-09-03T03:20:21;33.00;99.90
44435;DHT22;30138;20.964;105.830;2022-09-03T03:25:27;33.10;99.90
44435;DHT22;30138;20.964;105.830;2022-09-03T03:30:36;33.00;99.90
44435;DHT22;30138;20.964;105.830;2022-09-03T03:35:45;33.00;99.90
44435;DHT22;30138;20.964;105.830;2022-09-03T03:40:52;33.00;99.90
44435;DHT22;30138;20.964;105.830;2022-09-03T03:45:59;33.10;99.90
44435;DHT22;30138;20.964;105.830;2022-09-03T03:51:09;33.10;99.90
44435;DHT22;30138;20.964;105.830;2022-09-03T03:56:15;33.10;99.90
44435;DHT22;30138;20.964;105.830;2022-09-03T04:01:24;33.20;99.90
44435;DHT22;30138;20.964;105.830;2022-09-03T04:06:37;33.20;99.90
44435;DHT22;30138;20.964;105.830;2022-09-03T04:11:44;33.20;99.90
44435;DHT22;30138;20.964;105.830;2022-09-03T04:16:50;33.20;99.90
44435;DHT22;30138;20.964;105.830;2022-09-03T04:22:01;33.20;99.90
44435;DHT22;30138;20.964;105.830;2022-09-03T04:27:08;33.20;99.90
44435;DHT22;30138;20.964;105.830;2022-09-03T04:32:14;33.20;99.90
44435;DHT22;30138;20.964;105.830;2022-09-03T04:37:39;33.20;99.90
44435;DHT22;30138;20.964;105.830;2022-09-03T04:42:46;33.20;99.90
44435;DHT22;30138;20.964;105.830;2022-09-03T04:47:57;33.20;99.90
44435;DHT22;30138;20.964;105.830;2022-09-03T04:53:06;33.30;99.90
44435;DHT22;30138;20.964;105.830;2022-09-03T04:58:13;33.30;99.90
44435;DHT22;30138;20.964;105.830;2022-09-03T05:03:21;33.40;99.90
44435;DHT22;30138;20.964;105.830;2022-09-03T05:08:29;33.40;99.90
44435;DHT22;30138;20.964;105.830;2022-09-03T05:13:38;33.40;99.90
44435;DHT22;30138;20.964;105.830;2022-09-03T05:18:45;33.40;99.90
44435;DHT22;30138;20.964;105.830;2022-09-03T05:23:54;33.50;99.90
44435;DHT22;30138;20.964;105.830;2022-09-03T05:29:01;33.40;99.90
44435;DHT22;30138;20.964;105.830;2022-09-03T05:34:10;33.40;99.90
44435;DHT22;30138;20.964;105.830;2022-09-03T05:39:19;33.50;99.90
44435;DHT22;30138;20.964;105.830;2022-09-03T05:44:25;33.50;99.90
44435;DHT22;30138;20.964;105.830;2022-09-03T05:49:32;33.60;99.90
44435;DHT22;30138;20.964;105.830;2022-09-03T05:54:40;33.60;99.90
44435;DHT22;30138;20.964;105.830;2022-09-03T05:59:48;33.60;99.90
44435;DHT22;30138;20.964;105.830;2022-09-03T06:04:54;33.60;99.90
44435;DHT22;30138;20.964;105.830;2022-09-03T06:10:03;33.60;99.90
44435;DHT22;30138;20.964;105.830;2022-09-03T06:15:10;33.60;98.50
44435;DHT22;30138;20.964;105.830;2022-09-03T06:20:18;33.60;98.00
44435;DHT22;30138;20.964;105.830;2022-09-03T06:25:26;33.70;98.70
44435;DHT22;30138;20.964;105.830;2022-09-03T06:30:33;33.70;99.20
44435;DHT22;30138;20.964;105.830;2022-09-03T06:35:40;33.80;99.10
44435;DHT22;30138;20.964;105.830;2022-09-03T06:40:54;33.80;99.30
44435;DHT22;30138;20.964;105.830;2022-09-03T06:46:05;33.80;99.10
44435;DHT22;30138;20.964;105.830;2022-09-03T06:51:14;33.80;99.10
44435;DHT22;30138;20.964;105.830;2022-09-03T06:56:24;33.80;99.00
44435;DHT22;30138;20.964;105.830;2022-09-03T07:01:31;33.90;99.00
44435;DHT22;30138;20.964;105.830;2022-09-03T07:06:41;33.90;99.00
44435;DHT22;30138;20.964;105.830;2022-09-03T07:11:51;33.90;98.60
44435;DHT22;30138;20.964;105.830;2022-09-03T07:16:58;33.90;98.60
44435;DHT22;30138;20.964;105.830;2022-09-03T07:22:05;33.90;98.90
44435;DHT22;30138;20.964;105.830;2022-09-03T07:27:15;34.00;99.20
44435;DHT22;30138;20.964;105.830;2022-09-03T07:32:25;34.00;99.50
44435;DHT22;30138;20.964;105.830;2022-09-03T07:37:31;34.00;99.60
44435;DHT22;30138;20.964;105.830;2022-09-03T07:42:42;34.10;99.50
44435;DHT22;30138;20.964;105.830;2022-09-03T07:47:50;34.10;99.90
44435;DHT22;30138;20.964;105.830;2022-09-03T07:52:58;34.10;99.70
44435;DHT22;30138;20.964;105.830;2022-09-03T07:58:06;34.10;99.60
44435;DHT22;30138;20.964;105.830;2022-09-03T08:03:14;34.10;99.30
44435;DHT22;30138;20.964;105.830;2022-09-03T08:08:20;34.10;99.40
44435;DHT22;30138;20.964;105.830;2022-09-03T08:13:29;34.10;99.50
44435;DHT22;30138;20.964;105.830;2022-09-03T08:18:36;34.10;99.70
44435;DHT22;30138;20.964;105.830;2022-09-03T08:23:45;34.10;98.30
44435;DHT22;30138;20.964;105.830;2022-09-03T08:28:55;34.10;97.60
44435;DHT22;30138;20.964;105.830;2022-09-03T08:34:02;34.10;97.20
44435;DHT22;30138;20.964;105.830;2022-09-03T08:39:12;34.10;97.50
44435;DHT22;30138;20.964;105.830;2022-09-03T08:44:25;34.10;97.80
44435;DHT22;30138;20.964;105.830;2022-09-03T08:49:42;34.00;97.30
44435;DHT22;30138;20.964;105.830;2022-09-03T08:54:54;34.10;96.70
44435;DHT22;30138;20.964;105.830;2022-09-03T09:00:08;34.00;98.10
44435;DHT22;30138;20.964;105.830;2022-09-03T09:05:18;34.10;96.20
44435;DHT22;30138;20.964;105.830;2022-09-03T09:10:31;34.00;95.80
44435;DHT22;30138;20.964;105.830;2022-09-03T09:15:49;34.00;95.50
44435;DHT22;30138;20.964;105.830;2022-09-03T09:21:06;34.10;95.90
44435;DHT22;30138;20.964;105.830;2022-09-03T09:26:17;34.10;95.90
44435;DHT22;30138;20.964;105.830;2022-09-03T09:31:27;34.10;96.40
44435;DHT22;30138;20.964;105.830;2022-09-03T09:36:41;34.00;96.00
44435;DHT22;30138;20.964;105.830;2022-09-03T09:42:00;34.10;95.90
44435;DHT22;30138;20.964;105.830;2022-09-03T09:47:15;34.10;95.80
44435;DHT22;30138;20.964;105.830;2022-09-03T09:52:28;34.10;95.60
44435;DHT22;30138;20.964;105.830;2022-09-03T09:57:35;34.10;95.60
44435;DHT22;30138;20.964;105.830;2022-09-03T10:02:48;34.10;96.00
44435;DHT22;30138;20.964;105.830;2022-09-03T10:07:57;34.10;96.40
44435;DHT22;30138;20.964;105.830;2022-09-03T10:13:07;34.10;96.70
44435;DHT22;30138;20.964;105.830;2022-09-03T10:18:22;34.10;96.90
44435;DHT22;30138;20.964;105.830;2022-09-03T10:23:50;34.10;97.30
44435;DHT22;30138;20.964;105.830;2022-09-03T10:29:02;34.10;97.60
44435;DHT22;30138;20.964;105.830;2022-09-03T10:34:15;34.10;97.80
44435;DHT22;30138;20.964;105.830;2022-09-03T10:39:35;34.10;98.10
44435;DHT22;30138;20.964;105.830;2022-09-03T10:44:59;34.10;98.30
44435;DHT22;30138;20.964;105.830;2022-09-03T10:50:15;34.10;98.60
44435;DHT22;30138;20.964;105.830;2022-09-03T10:55:34;34.10;98.70
44435;DHT22;30138;20.964;105.830;2022-09-03T11:00:52;34.10;98.90
44435;DHT22;30138;20.964;105.830;2022-09-03T11:06:06;34.00;99.00
44435;DHT22;30138;20.964;105.830;2022-09-03T11:11:19;34.00;99.20
44435;DHT22;30138;20.964;105.830;2022-09-03T11:16:32;34.00;99.30
44435;DHT22;30138;20.964;105.830;2022-09-03T11:21:42;34.00;99.80
44435;DHT22;30138;20.964;105.830;2022-09-03T11:26:54;34.00;99.60
44435;DHT22;30138;20.964;105.830;2022-09-03T11:32:08;34.00;99.80
44435;DHT22;30138;20.964;105.830;2022-09-03T11:37:24;34.00;99.90
44435;DHT22;30138;20.964;105.830;2022-09-03T11:42:35;34.00;99.90
44435;DHT22;30138;20.964;105.830;2022-09-03T11:47:43;34.00;99.90
44435;DHT22;30138;20.964;105.830;2022-09-03T11:52:54;34.00;99.90
44435;DHT22;30138;20.964;105.830;2022-09-03T11:58:18;34.00;99.90
44435;DHT22;30138;20.964;105.830;2022-09-03T12:03:29;34.00;99.90
44435;DHT22;30138;20.964;105.830;2022-09-03T12:09:10;34.00;99.90
44435;DHT22;30138;20.964;105.830;2022-09-03T12:14:34;34.00;99.90
44435;DHT22;30138;20.964;105.830;2022-09-03T12:19:51;34.00;99.90
44435;DHT22;30138;20.964;105.830;2022-09-03T12:25:09;34.00;99.90
44435;DHT22;30138;20.964;105.830;2022-09-03T12:30:22;34.00;99.90
44435;DHT22;30138;20.964;105.830;2022-09-03T12:35:32;34.00;99.90
44435;DHT22;30138;20.964;105.830;2022-09-03T12:40:42;34.00;99.90
44435;DHT22;30138;20.964;105.830;2022-09-03T12:45:48;34.00;99.90
44435;DHT22;30138;20.964;105.830;2022-09-03T12:51:02;34.00;99.90
44435;DHT22;30138;20.964;105.830;2022-09-03T12:56:10;34.00;99.90
44435;DHT22;30138;20.964;105.830;2022-09-03T13:01:21;34.00;99.90
44435;DHT22;30138;20.964;105.830;2022-09-03T13:06:39;34.00;99.90
44435;DHT22;30138;20.964;105.830;2022-09-03T13:11:53;34.00;99.90
44435;DHT22;30138;20.964;105.830;2022-09-03T13:17:18;34.00;99.90
44435;DHT22;30138;20.964;105.830;2022-09-03T13:22:44;33.90;99.80
44435;DHT22;30138;20.964;105.830;2022-09-03T13:28:09;33.90;99.80
44435;DHT22;30138;20.964;105.830;2022-09-03T13:33:27;33.90;99.90
44435;DHT22;30138;20.964;105.830;2022-09-03T13:38:40;33.90;99.80
44435;DHT22;30138;20.964;105.830;2022-09-03T13:43:53;33.90;99.90
44435;DHT22;30138;20.964;105.830;2022-09-03T13:49:11;33.90;99.90
44435;DHT22;30138;20.964;105.830;2022-09-03T13:54:47;33.90;99.90
44435;DHT22;30138;20.964;105.830;2022-09-03T14:00:01;33.90;99.90
44435;DHT22;30138;20.964;105.830;2022-09-03T14:05:13;33.90;99.90
44435;DHT22;30138;20.964;105.830;2022-09-03T14:10:32;33.90;99.90
44435;DHT22;30138;20.964;105.830;2022-09-03T14:15:54;33.90;99.90
44435;DHT22;30138;20.964;105.830;2022-09-03T14:21:08;33.90;99.90
44435;DHT22;30138;20.964;105.830;2022-09-03T14:26:23;33.90;99.80
44435;DHT22;30138;20.964;105.830;2022-09-03T14:37:30;33.90;99.90
44435;DHT22;30138;20.964;105.830;2022-09-03T14:42:56;33.90;99.90
44435;DHT22;30138;20.964;105.830;2022-09-03T15:00:19;33.80;99.90
44435;DHT22;30138;20.964;105.830;2022-09-03T15:05:47;33.80;99.90
44435;DHT22;30138;20.964;105.830;2022-09-03T15:11:00;33.80;99.90
44435;DHT22;30138;20.964;105.830;2022-09-03T15:17:25;33.80;99.90
44435;DHT22;30138;20.964;105.830;2022-09-03T15:22:43;33.80;99.90
44435;DHT22;30138;20.964;105.830;2022-09-03T15:28:29;33.80;99.90
44435;DHT22;30138;20.964;105.830;2022-09-03T15:33:49;33.80;99.90
44435;DHT22;30138;20.964;105.830;2022-09-03T15:39:07;33.80;99.90
44435;DHT22;30138;20.964;105.830;2022-09-03T15:44:16;33.80;99.90
44435;DHT22;30138;20.964;105.830;2022-09-03T15:55:39;33.80;99.90
44435;DHT22;30138;20.964;105.830;2022-09-03T16:00:55;33.80;99.90
44435;DHT22;30138;20.964;105.830;2022-09-03T16:06:10;33.80;99.90
44435;DHT22;30138;20.964;105.830;2022-09-03T16:11:35;33.80;99.90
44435;DHT22;30138;20.964;105.830;2022-09-03T16:16:54;33.80;99.90
44435;DHT22;30138;20.964;105.830;2022-09-03T16:22:06;33.80;99.90
44435;DHT22;30138;20.964;105.830;2022-09-03T16:27:22;33.80;99.90
44435;DHT22;30138;20.964;105.830;2022-09-03T16:32:46;33.80;99.90
44435;DHT22;30138;20.964;105.830;2022-09-03T16:38:09;33.80;99.90
44435;DHT22;30138;20.964;105.830;2022-09-03T16:43:29;33.80;99.90
44435;DHT22;30138;20.964;105.830;2022-09-03T16:48:47;33.80;99.90
44435;DHT22;30138;20.964;105.830;2022-09-03T16:54:16;33.70;99.90
44435;DHT22;30138;20.964;105.830;2022-09-03T16:59:58;33.70;99.90
44435;DHT22;30138;20.964;105.830;2022-09-03T17:05:19;33.70;99.90
44435;DHT22;30138;20.964;105.830;2022-09-03T17:10:52;33.70;99.90
44435;DHT22;30138;20.964;105.830;2022-09-03T17:16:12;33.80;99.90
44435;DHT22;30138;20.964;105.830;2022-09-03T17:21:37;33.80;99.90
44435;DHT22;30138;20.964;105.830;2022-09-03T17:26:53;33.70;99.90
44435;DHT22;30138;20.964;105.830;2022-09-03T17:32:21;33.70;99.90
44435;DHT22;30138;20.964;105.830;2022-09-03T17:37:45;33.70;99.90
44435;DHT22;30138;20.964;105.830;2022-09-03T17:43:14;33.70;99.90
44435;DHT22;30138;20.964;105.830;2022-09-03T17:48:45;33.70;99.90
44435;DHT22;30138;20.964;105.830;2022-09-03T17:53:59;33.70;99.90
44435;DHT22;30138;20.964;105.830;2022-09-03T17:59:18;33.70;99.90
44435;DHT22;30138;20.964;105.830;2022-09-03T18:04:45;33.70;99.90
44435;DHT22;30138;20.964;105.830;2022-09-03T18:10:06;33.60;99.90
44435;DHT22;30138;20.964;105.830;2022-09-03T18:15:19;33.70;99.90
44435;DHT22;30138;20.964;105.830;2022-09-03T18:20:41;33.60;99.90
44435;DHT22;30138;20.964;105.830;2022-09-03T18:26:11;33.60;99.90
44435;DHT22;30138;20.964;105.830;2022-09-03T18:31:36;33.60;99.90
44435;DHT22;30138;20.964;105.830;2022-09-03T18:37:30;33.60;99.90
44435;DHT22;30138;20.964;105.830;2022-09-03T18:43:01;33.60;99.90
44435;DHT22;30138;20.964;105.830;2022-09-03T18:48:33;33.60;99.90
44435;DHT22;30138;20.964;105.830;2022-09-03T18:54:11;33.60;99.90
44435;DHT22;30138;20.964;105.830;2022-09-03T19:05:38;33.60;99.90
44435;DHT22;30138;20.964;105.830;2022-09-03T19:11:13;33.60;99.90
44435;DHT22;30138;20.964;105.830;2022-09-03T19:16:49;33.60;99.90
44435;DHT22;30138;20.964;105.830;2022-09-03T19:22:20;33.60;99.90
44435;DHT22;30138;20.964;105.830;2022-09-03T19:28:01;33.60;99.90
44435;DHT22;30138;20.964;105.830;2022-09-03T19:33:35;33.60;99.90
44435;DHT22;30138;20.964;105.830;2022-09-03T19:39:12;33.60;99.90
44435;DHT22;30138;20.964;105.830;2022-09-03T19:44:57;33.50;99.90
44435;DHT22;30138;20.964;105.830;2022-09-03T19:50:26;33.50;99.90
44435;DHT22;30138;20.964;105.830;2022-09-03T19:55:54;33.50;99.90
44435;DHT22;30138;20.964;105.830;2022-09-03T20:01:20;33.50;99.90
44435;DHT22;30138;20.964;105.830;2022-09-03T20:06:44;33.50;99.90
44435;DHT22;30138;20.964;105.830;2022-09-03T20:12:07;33.50;99.90
44435;DHT22;30138;20.964;105.830;2022-09-03T20:17:25;33.50;99.90
44435;DHT22;30138;20.964;105.830;2022-09-03T20:22:43;33.50;99.90
44435;DHT22;30138;20.964;105.830;2022-09-03T20:28:03;33.50;99.90
44435;DHT22;30138;20.964;105.830;2022-09-03T20:33:40;33.50;99.90
44435;DHT22;30138;20.964;105.830;2022-09-03T20:39:18;33.40;99.90
44435;DHT22;30138;20.964;105.830;2022-09-03T20:44:43;33.40;99.90
44435;DHT22;30138;20.964;105.830;2022-09-03T20:50:06;33.40;99.90
44435;DHT22;30138;20.964;105.830;2022-09-03T20:55:22;33.40;99.90
44435;DHT22;30138;20.964;105.830;2022-09-03T21:00:42;33.40;99.90
44435;DHT22;30138;20.964;105.830;2022-09-03T21:06:12;33.40;99.90
44435;DHT22;30138;20.964;105.830;2022-09-03T21:11:33;33.40;99.90
44435;DHT22;30138;20.964;105.830;2022-09-03T21:16:49;33.40;99.90
44435;DHT22;30138;20.964;105.830;2022-09-03T21:22:08;33.30;99.90
44435;DHT22;30138;20.964;105.830;2022-09-03T21:27:32;33.40;99.90
44435;DHT22;30138;20.964;105.830;2022-09-03T21:32:46;33.40;99.90
44435;DHT22;30138;20.964;105.830;2022-09-03T21:37:57;33.40;99.90
44435;DHT22;30138;20.964;105.830;2022-09-03T21:43:10;33.40;99.90
44435;DHT22;30138;20.964;105.830;2022-09-03T21:48:24;33.30;99.90
44435;DHT22;30138;20.964;105.830;2022-09-03T21:53:45;33.40;99.90
44435;DHT22;30138;20.964;105.830;2022-09-03T21:59:03;33.40;99.90
44435;DHT22;30138;20.964;105.830;2022-09-03T22:04:10;33.40;99.90
44435;DHT22;30138;20.964;105.830;2022-09-03T22:09:23;33.30;99.90
44435;DHT22;30138;20.964;105.830;2022-09-03T22:14:38;33.30;99.90
44435;DHT22;30138;20.964;105.830;2022-09-03T22:19:49;33.30;99.90
44435;DHT22;30138;20.964;105.830;2022-09-03T22:25:02;33.30;99.90
44435;DHT22;30138;20.964;105.830;2022-09-03T22:30:14;33.30;99.90
44435;DHT22;30138;20.964;105.830;2022-09-03T22:35:48;33.30;99.90
44435;DHT22;30138;20.964;105.830;2022-09-03T22:41:15;33.30;99.90
44435;DHT22;30138;20.964;105.830;2022-09-03T22:46:39;33.30;99.90
44435;DHT22;30138;20.964;105.830;2022-09-03T22:52:06;33.30;99.90
44435;DHT22;30138;20.964;105.830;2022-09-03T22:57:22;33.30;99.90
44435;DHT22;30138;20.964;105.830;2022-09-03T23:02:31;33.30;99.90
44435;DHT22;30138;20.964;105.830;2022-09-03T23:07:50;33.30;99.90
44435;DHT22;30138;20.964;105.830;2022-09-03T23:13:06;33.30;99.90
44435;DHT22;30138;20.964;105.830;2022-09-03T23:18:16;33.30;99.90
44435;DHT22;30138;20.964;105.830;2022-09-03T23:23:30;33.30;99.90
44435;DHT22;30138;20.964;105.830;2022-09-03T23:28:42;33.30;99.90
44435;DHT22;30138;20.964;105.830;2022-09-03T23:33:51;33.30;99.90
44435;DHT22;30138;20.964;105.830;2022-09-03T23:39:02;33.30;99.90
44435;DHT22;30138;20.964;105.830;2022-09-03T23:44:29;33.20;99.90
44435;DHT22;30138;20.964;105.830;2022-09-03T23:49:47;33.20;99.90
44435;DHT22;30138;20.964;105.830;2022-09-03T23:55:06;33.20;99.90
